ARG1531 SACO-SABE
Flight info
| Callsign | ARG1531 |
|---|---|
| Flight time | N/A |
| Altitude | FL310 |
| Route | UTRA1G UTRAX UW24 SNT SNT9R |
| Aircraft | B738/M-SDE2E3FGHIRWXY/LB1 |
Departure
| Time | 2026-05-07 17:13 |
|---|---|
| Airport | Ingeniero Aeronáutico Ambrosio L.V. Taravella International Airport (SACO) |
Arrival
| Time | N/A |
|---|---|
| Airport | Aeroparque Jorge Newbery (SABE) |
| Time | Latitude | Longitude | Altitude | Speed | Heading |
|---|---|---|---|---|---|
| 2026-05-07 16:49 | -31.31618 | -64.21169 | 1557 ft | 0 kts | 269° |
| 2026-05-07 17:02 | -31.31618 | -64.21160 | 1556 ft | 2 kts | 282° |
| 2026-05-07 17:03 | -31.31620 | -64.21143 | 1556 ft | 2 kts | 265° |
| 2026-05-07 17:03 | -31.31619 | -64.21125 | 1555 ft | 2 kts | 271° |
| 2026-05-07 17:03 | -31.31620 | -64.21108 | 1554 ft | 2 kts | 295° |
| 2026-05-07 17:03 | -31.31631 | -64.21096 | 1554 ft | 2 kts | 343° |
| 2026-05-07 17:04 | -31.31645 | -64.21095 | 1553 ft | 1 kts | 7° |
| 2026-05-07 17:04 | -31.31649 | -64.21095 | 1553 ft | 0 kts | 2° |
| 2026-05-07 17:06 | -31.31630 | -64.21096 | 1554 ft | 5 kts | 358° |
| 2026-05-07 17:06 | -31.31591 | -64.21092 | 1555 ft | 6 kts | 11° |
| 2026-05-07 17:07 | -31.31548 | -64.21079 | 1556 ft | 6 kts | 15° |
| 2026-05-07 17:07 | -31.31509 | -64.21064 | 1557 ft | 5 kts | 23° |
| 2026-05-07 17:07 | -31.31474 | -64.21031 | 1557 ft | 8 kts | 53° |
| 2026-05-07 17:07 | -31.31460 | -64.20946 | 1555 ft | 14 kts | 92° |
| 2026-05-07 17:08 | -31.31419 | -64.20830 | 1551 ft | 20 kts | 9° |
| 2026-05-07 17:08 | -31.31273 | -64.20829 | 1554 ft | 22 kts | 358° |
| 2026-05-07 17:08 | -31.31112 | -64.20834 | 1558 ft | 24 kts | 359° |
| 2026-05-07 17:08 | -31.30943 | -64.20836 | 1564 ft | 24 kts | 359° |
| 2026-05-07 17:09 | -31.30780 | -64.20838 | 1568 ft | 23 kts | 359° |
| 2026-05-07 17:09 | -31.30628 | -64.20841 | 1573 ft | 21 kts | 359° |
| 2026-05-07 17:09 | -31.30487 | -64.20844 | 1576 ft | 20 kts | 359° |
| 2026-05-07 17:09 | -31.30354 | -64.20847 | 1581 ft | 18 kts | 359° |
| 2026-05-07 17:10 | -31.30230 | -64.20849 | 1584 ft | 17 kts | 359° |
| 2026-05-07 17:10 | -31.30110 | -64.20851 | 1587 ft | 17 kts | 359° |
| 2026-05-07 17:10 | -31.30000 | -64.20850 | 1592 ft | 15 kts | 1° |
| 2026-05-07 17:10 | -31.29900 | -64.20850 | 1594 ft | 14 kts | 359° |
| 2026-05-07 17:11 | -31.29801 | -64.20852 | 1596 ft | 14 kts | 359° |
| 2026-05-07 17:11 | -31.29706 | -64.20854 | 1598 ft | 13 kts | 358° |
| 2026-05-07 17:11 | -31.29621 | -64.20880 | 1601 ft | 12 kts | 340° |
| 2026-05-07 17:11 | -31.29581 | -64.20882 | 1603 ft | 1 kts | 34° |
| 2026-05-07 17:12 | -31.29574 | -64.20867 | 1603 ft | 3 kts | 87° |
| 2026-05-07 17:12 | -31.29607 | -64.20857 | 1601 ft | 9 kts | 178° |
| 2026-05-07 17:12 | -31.29872 | -64.20853 | 1595 ft | 74 kts | 179° |
| 2026-05-07 17:12 | -31.30631 | -64.20840 | 1574 ft | 140 kts | 179° |
| 2026-05-07 17:13 | -31.31742 | -64.20814 | 1891 ft | 165 kts | 179° |
| 2026-05-07 17:13 | -31.32870 | -64.20747 | 2571 ft | 172 kts | 175° |
| 2026-05-07 17:13 | -31.34095 | -64.20323 | 2983 ft | 200 kts | 156° |
| 2026-05-07 17:13 | -31.35260 | -64.19252 | 3389 ft | 228 kts | 142° |
| 2026-05-07 17:14 | -31.36380 | -64.17948 | 4209 ft | 232 kts | 141° |
| 2026-05-07 17:14 | -31.37457 | -64.16630 | 5220 ft | 225 kts | 140° |
| 2026-05-07 17:14 | -31.38523 | -64.15287 | 5968 ft | 229 kts | 141° |
| 2026-05-07 17:14 | -31.39630 | -64.13987 | 6747 ft | 230 kts | 144° |
| 2026-05-07 17:15 | -31.40829 | -64.12741 | 7411 ft | 235 kts | 147° |
| 2026-05-07 17:15 | -31.42083 | -64.11503 | 8115 ft | 240 kts | 148° |
| 2026-05-07 17:15 | -31.43352 | -64.10248 | 8857 ft | 243 kts | 148° |
| 2026-05-07 17:15 | -31.44637 | -64.08968 | 9588 ft | 246 kts | 149° |
| 2026-05-07 17:16 | -31.45912 | -64.07614 | 10238 ft | 256 kts | 142° |
| 2026-05-07 17:16 | -31.47070 | -64.05935 | 10785 ft | 273 kts | 134° |
| 2026-05-07 17:16 | -31.48178 | -64.04061 | 11236 ft | 290 kts | 132° |
| 2026-05-07 17:16 | -31.49339 | -64.02055 | 11643 ft | 307 kts | 132° |
| 2026-05-07 17:17 | -31.50581 | -63.99957 | 12106 ft | 322 kts | 131° |
| 2026-05-07 17:17 | -31.51902 | -63.97765 | 12513 ft | 338 kts | 132° |
| 2026-05-07 17:17 | -31.53289 | -63.95477 | 12918 ft | 355 kts | 131° |
| 2026-05-07 17:17 | -31.54749 | -63.93068 | 13298 ft | 372 kts | 131° |
| 2026-05-07 17:18 | -31.56291 | -63.90524 | 13693 ft | 389 kts | 130° |
| 2026-05-07 17:18 | -31.57855 | -63.87929 | 14444 ft | 394 kts | 130° |
| 2026-05-07 17:18 | -31.59440 | -63.85292 | 15117 ft | 402 kts | 130° |
| 2026-05-07 17:18 | -31.61058 | -63.82599 | 15757 ft | 410 kts | 130° |
| 2026-05-07 17:19 | -31.62707 | -63.79858 | 16448 ft | 416 kts | 130° |
| 2026-05-07 17:19 | -31.64383 | -63.77067 | 17135 ft | 422 kts | 130° |
| 2026-05-07 17:19 | -31.66084 | -63.74232 | 17737 ft | 430 kts | 130° |
| 2026-05-07 17:19 | -31.67821 | -63.71339 | 18379 ft | 436 kts | 129° |
| 2026-05-07 17:20 | -31.69574 | -63.68418 | 18997 ft | 441 kts | 129° |
| 2026-05-07 17:20 | -31.71345 | -63.65463 | 19567 ft | 448 kts | 128° |
| 2026-05-07 17:20 | -31.73146 | -63.62460 | 20127 ft | 454 kts | 127° |
| 2026-05-07 17:20 | -31.74965 | -63.59424 | 20684 ft | 460 kts | 127° |
| 2026-05-07 17:21 | -31.76813 | -63.56335 | 21204 ft | 467 kts | 126° |
| 2026-05-07 17:21 | -31.78679 | -63.53214 | 21709 ft | 473 kts | 125° |
| 2026-05-07 17:21 | -31.80588 | -63.50015 | 22200 ft | 479 kts | 124° |
| 2026-05-07 17:21 | -31.82502 | -63.46804 | 22719 ft | 484 kts | 124° |
| 2026-05-07 17:22 | -31.84434 | -63.43557 | 23186 ft | 489 kts | 123° |
| 2026-05-07 17:22 | -31.86388 | -63.40271 | 23739 ft | 493 kts | 123° |
| 2026-05-07 17:22 | -31.88351 | -63.36969 | 24252 ft | 497 kts | 123° |
| 2026-05-07 17:22 | -31.90371 | -63.33656 | 24728 ft | 503 kts | 124° |
| 2026-05-07 17:23 | -31.92504 | -63.30380 | 25425 ft | 501 kts | 126° |
| 2026-05-07 17:23 | -31.94663 | -63.27193 | 26189 ft | 498 kts | 126° |
| 2026-05-07 17:23 | -31.96828 | -63.24040 | 26789 ft | 497 kts | 126° |
| 2026-05-07 17:23 | -31.99002 | -63.20883 | 27383 ft | 497 kts | 126° |
| 2026-05-07 17:24 | -32.01163 | -63.17738 | 27923 ft | 497 kts | 126° |
| 2026-05-07 17:24 | -32.03320 | -63.14584 | 28510 ft | 496 kts | 126° |
| 2026-05-07 17:24 | -32.05470 | -63.11427 | 29120 ft | 493 kts | 125° |
| 2026-05-07 17:24 | -32.07604 | -63.08279 | 29748 ft | 490 kts | 125° |
| 2026-05-07 17:25 | -32.09710 | -63.05157 | 30239 ft | 489 kts | 124° |
| 2026-05-07 17:25 | -32.11811 | -63.02031 | 30675 ft | 487 kts | 124° |
| 2026-05-07 17:25 | -32.13906 | -62.98902 | 30799 ft | 492 kts | 125° |
| 2026-05-07 17:25 | -32.16011 | -62.95751 | 30814 ft | 491 kts | 125° |
| 2026-05-07 17:26 | -32.20224 | -62.89431 | 30813 ft | 493 kts | 125° |
| 2026-05-07 17:26 | -32.24467 | -62.83055 | 30811 ft | 499 kts | 125° |
| 2026-05-07 17:27 | -32.28766 | -62.76580 | 30809 ft | 503 kts | 124° |
| 2026-05-07 17:27 | -32.33055 | -62.70130 | 30816 ft | 501 kts | 124° |
| 2026-05-07 17:28 | -32.37371 | -62.63626 | 30812 ft | 501 kts | 124° |
| 2026-05-07 17:28 | -32.41656 | -62.57153 | 30813 ft | 501 kts | 124° |
| 2026-05-07 17:29 | -32.45943 | -62.50664 | 30811 ft | 505 kts | 124° |
| 2026-05-07 17:29 | -32.50234 | -62.44159 | 30801 ft | 504 kts | 124° |
| 2026-05-07 17:30 | -32.54536 | -62.37630 | 30805 ft | 506 kts | 123° |
| 2026-05-07 17:30 | -32.58841 | -62.31078 | 30809 ft | 507 kts | 123° |
| 2026-05-07 17:31 | -32.63144 | -62.24519 | 30797 ft | 505 kts | 122° |
| 2026-05-07 17:31 | -32.67473 | -62.17903 | 30786 ft | 511 kts | 122° |
| 2026-05-07 17:32 | -32.71708 | -62.11223 | 30772 ft | 505 kts | 119° |
| 2026-05-07 17:32 | -32.75684 | -62.04402 | 30780 ft | 508 kts | 117° |
| 2026-05-07 17:33 | -32.79613 | -61.97517 | 30761 ft | 507 kts | 118° |
| 2026-05-07 17:33 | -32.83588 | -61.90577 | 30752 ft | 512 kts | 118° |
| 2026-05-07 17:34 | -32.87597 | -61.83635 | 30749 ft | 510 kts | 118° |
| 2026-05-07 17:34 | -32.91622 | -61.76690 | 30758 ft | 515 kts | 118° |
| 2026-05-07 17:35 | -32.95663 | -61.69710 | 30765 ft | 512 kts | 117° |
| 2026-05-07 17:35 | -32.99705 | -61.62714 | 30757 ft | 516 kts | 117° |
| 2026-05-07 17:36 | -33.03768 | -61.55680 | 30748 ft | 519 kts | 117° |
| 2026-05-07 17:36 | -33.07841 | -61.48614 | 30742 ft | 518 kts | 118° |
| 2026-05-07 17:37 | -33.11912 | -61.41529 | 30737 ft | 522 kts | 117° |
| 2026-05-07 17:37 | -33.15960 | -61.34478 | 30733 ft | 517 kts | 116° |
| 2026-05-07 17:38 | -33.20007 | -61.27410 | 30737 ft | 518 kts | 116° |
| 2026-05-07 17:38 | -33.24084 | -61.20276 | 30728 ft | 528 kts | 116° |
| 2026-05-07 17:39 | -33.28166 | -61.13123 | 30726 ft | 524 kts | 116° |
| 2026-05-07 17:39 | -33.32209 | -61.06020 | 30723 ft | 524 kts | 115° |
| 2026-05-07 17:40 | -33.36245 | -60.98887 | 30719 ft | 518 kts | 115° |
| 2026-05-07 17:40 | -33.40250 | -60.91771 | 30722 ft | 518 kts | 114° |
| 2026-05-07 17:41 | -33.44244 | -60.84633 | 30710 ft | 518 kts | 115° |
| 2026-05-07 17:41 | -33.48208 | -60.77549 | 30715 ft | 518 kts | 114° |
| 2026-05-07 17:42 | -33.52051 | -60.70691 | 30709 ft | 510 kts | 115° |
| 2026-05-07 17:42 | -33.55971 | -60.63656 | 30698 ft | 515 kts | 116° |
| 2026-05-07 17:43 | -33.59891 | -60.56627 | 30693 ft | 509 kts | 115° |
| 2026-05-07 17:43 | -33.63809 | -60.49578 | 30685 ft | 512 kts | 115° |
| 2026-05-07 17:44 | -33.67692 | -60.42587 | 30685 ft | 511 kts | 116° |
| 2026-05-07 17:44 | -33.71587 | -60.35546 | 30676 ft | 509 kts | 115° |
| 2026-05-07 17:45 | -33.75411 | -60.28628 | 30669 ft | 506 kts | 115° |
| 2026-05-07 17:45 | -33.79277 | -60.21613 | 30678 ft | 509 kts | 115° |
| 2026-05-07 17:46 | -33.83145 | -60.14590 | 30667 ft | 504 kts | 115° |
| 2026-05-07 17:46 | -33.87000 | -60.07629 | 30660 ft | 504 kts | 115° |
| 2026-05-07 17:47 | -33.90901 | -60.00653 | 30652 ft | 505 kts | 115° |
| 2026-05-07 17:47 | -33.94816 | -59.93665 | 30646 ft | 500 kts | 115° |
| 2026-05-07 17:48 | -33.98643 | -59.86813 | 30609 ft | 505 kts | 115° |
| 2026-05-07 17:48 | -34.00531 | -59.83425 | 30250 ft | 502 kts | 115° |
| 2026-05-07 17:48 | -34.02426 | -59.80018 | 29668 ft | 500 kts | 115° |
| 2026-05-07 17:49 | -34.04303 | -59.76656 | 29467 ft | 489 kts | 115° |
| 2026-05-07 17:49 | -34.06157 | -59.73338 | 29224 ft | 479 kts | 115° |
| 2026-05-07 17:49 | -34.07985 | -59.70061 | 29025 ft | 468 kts | 115° |
| 2026-05-07 17:49 | -34.09775 | -59.66841 | 28661 ft | 463 kts | 115° |
| 2026-05-07 17:50 | -34.11554 | -59.63627 | 28299 ft | 456 kts | 116° |
| 2026-05-07 17:50 | -34.13303 | -59.60455 | 27685 ft | 457 kts | 116° |
| 2026-05-07 17:50 | -34.15047 | -59.57283 | 27002 ft | 460 kts | 116° |
| 2026-05-07 17:50 | -34.16800 | -59.54092 | 26632 ft | 454 kts | 116° |
| 2026-05-07 17:51 | -34.18516 | -59.50976 | 26326 ft | 446 kts | 117° |
| 2026-05-07 17:51 | -34.20225 | -59.47868 | 25706 ft | 448 kts | 117° |
| 2026-05-07 17:51 | -34.21933 | -59.44757 | 25214 ft | 445 kts | 117° |
| 2026-05-07 17:51 | -34.23635 | -59.41627 | 24616 ft | 446 kts | 117° |
| 2026-05-07 17:52 | -34.25298 | -59.38497 | 24173 ft | 442 kts | 117° |
| 2026-05-07 17:52 | -34.26923 | -59.35410 | 23678 ft | 441 kts | 117° |
| 2026-05-07 17:52 | -34.28546 | -59.32307 | 23193 ft | 440 kts | 117° |
| 2026-05-07 17:52 | -34.30156 | -59.29221 | 22773 ft | 436 kts | 117° |
| 2026-05-07 17:53 | -34.31734 | -59.26198 | 22406 ft | 431 kts | 117° |
| 2026-05-07 17:53 | -34.33298 | -59.23199 | 21798 ft | 434 kts | 118° |
| 2026-05-07 17:53 | -34.34852 | -59.20213 | 21390 ft | 430 kts | 118° |
| 2026-05-07 17:53 | -34.36386 | -59.17271 | 21078 ft | 424 kts | 118° |
| 2026-05-07 17:54 | -34.37923 | -59.14329 | 20604 ft | 423 kts | 119° |
| 2026-05-07 17:54 | -34.39427 | -59.11451 | 20180 ft | 420 kts | 118° |
| 2026-05-07 17:54 | -34.40944 | -59.08550 | 19748 ft | 418 kts | 119° |
| 2026-05-07 17:54 | -34.42423 | -59.05720 | 19446 ft | 412 kts | 120° |
| 2026-05-07 17:55 | -34.43891 | -59.02910 | 19034 ft | 410 kts | 120° |
| 2026-05-07 17:55 | -34.45357 | -59.00100 | 18565 ft | 409 kts | 119° |
| 2026-05-07 17:55 | -34.46801 | -58.97332 | 18177 ft | 405 kts | 120° |
| 2026-05-07 17:55 | -34.48230 | -58.94588 | 17793 ft | 402 kts | 120° |
| 2026-05-07 17:56 | -34.49657 | -58.91847 | 17500 ft | 396 kts | 119° |
| 2026-05-07 17:56 | -34.51069 | -58.89131 | 17071 ft | 394 kts | 120° |
| 2026-05-07 17:56 | -34.52467 | -58.86438 | 16754 ft | 389 kts | 121° |
| 2026-05-07 17:56 | -34.53842 | -58.83788 | 16371 ft | 386 kts | 121° |
| 2026-05-07 17:57 | -34.55178 | -58.81164 | 16038 ft | 382 kts | 119° |
| 2026-05-07 17:57 | -34.55981 | -58.79383 | 15862 ft | 377 kts | 115° |
| 2026-05-07 17:57 | -34.57295 | -58.75679 | 15729 ft | 360 kts | 108° |
| 2026-05-07 17:57 | -34.58071 | -58.72988 | 15615 ft | 349 kts | 105° |
| 2026-05-07 17:58 | -34.58779 | -58.70335 | 15457 ft | 340 kts | 105° |
| 2026-05-07 17:58 | -34.59456 | -58.67765 | 15386 ft | 326 kts | 105° |
| 2026-05-07 17:58 | -34.60128 | -58.65242 | 15163 ft | 319 kts | 107° |
| 2026-05-07 17:58 | -34.60798 | -58.62757 | 14706 ft | 321 kts | 107° |
| 2026-05-07 17:59 | -34.61477 | -58.60260 | 14177 ft | 324 kts | 108° |
| 2026-05-07 17:59 | -34.62158 | -58.57731 | 13597 ft | 329 kts | 109° |
| 2026-05-07 17:59 | -34.62849 | -58.55132 | 13001 ft | 333 kts | 109° |
| 2026-05-07 17:59 | -34.63521 | -58.52591 | 12598 ft | 329 kts | 109° |
| 2026-05-07 18:00 | -34.64171 | -58.50128 | 12438 ft | 317 kts | 109° |
| 2026-05-07 18:00 | -34.64800 | -58.47751 | 12313 ft | 301 kts | 109° |
| 2026-05-07 18:00 | -34.65398 | -58.45497 | 11997 ft | 294 kts | 109° |
| 2026-05-07 18:00 | -34.65990 | -58.43257 | 11458 ft | 296 kts | 109° |
| 2026-05-07 18:01 | -34.66582 | -58.41021 | 10876 ft | 299 kts | 108° |
| 2026-05-07 18:01 | -34.67188 | -58.38738 | 10285 ft | 300 kts | 108° |
| 2026-05-07 18:01 | -34.67793 | -58.36452 | 9703 ft | 301 kts | 108° |
| 2026-05-07 18:01 | -34.68402 | -58.34152 | 9114 ft | 302 kts | 108° |
| 2026-05-07 18:02 | -34.69621 | -58.29505 | 7929 ft | 302 kts | 107° |
| 2026-05-07 18:02 | -34.70230 | -58.27162 | 7330 ft | 302 kts | 107° |
| 2026-05-07 18:02 | -34.70851 | -58.24795 | 6711 ft | 302 kts | 107° |
| 2026-05-07 18:03 | -34.71462 | -58.22481 | 6218 ft | 298 kts | 108° |
| 2026-05-07 18:03 | -34.72066 | -58.20153 | 5725 ft | 293 kts | 108° |
| 2026-05-07 18:03 | -34.72643 | -58.17865 | 5281 ft | 288 kts | 108° |
| 2026-05-07 18:03 | -34.73129 | -58.15606 | 5016 ft | 276 kts | 98° |
| 2026-05-07 18:04 | -34.72984 | -58.13422 | 4765 ft | 262 kts | 68° |
| 2026-05-07 18:04 | -34.72086 | -58.11679 | 4518 ft | 242 kts | 36° |
| 2026-05-07 18:04 | -34.70725 | -58.10794 | 4274 ft | 217 kts | 2° |
| 2026-05-07 18:04 | -34.69369 | -58.10929 | 4025 ft | 190 kts | 326° |
| 2026-05-07 18:05 | -34.68479 | -58.11857 | 3806 ft | 170 kts | 298° |
| 2026-05-07 18:05 | -34.67961 | -58.13061 | 3578 ft | 164 kts | 288° |
| 2026-05-07 18:05 | -34.67533 | -58.14272 | 3409 ft | 161 kts | 288° |